首页
METAR-TAF:

METAR-TAF

机场 :

杰克逊维尔国际机场

杰克逊维尔, 佛罗里达州, 美国

纬度: 30-29-40N, 经度: 081-41-36W, 海拔: 9米

当前天气观测

该预报发布于8分钟前的00:56 UTC
风速5节,风向东转东南
温度 24°C
湿度 89%
气压 1015 hPa
能見度: 16.1公里
少量云层高于2000英尺
多云层高于14000英尺
阴天层高于25000英尺

METAR: KJAX 160056Z 11005KT 10SM FEW020 BKN140 OVC250 24/22 A2997 RMK AO2 RAE37 SLP148 P0000 T02390222

时间: 21:04 (01:04 UTC)

预报

该预报发布于1小时和27分钟前的23:37 UTC
预报有效从16日的 00点(UTC)到 16日的 24点(UTC)
风速6节,风向
能見度: 10公里
少量云层高于1500英尺
多云层高于8000英尺
小雨
从 16日的 0200点(UTC)
风速6节,风向东南
能見度: 10公里
散云层高于1500英尺
多云层高于4000英尺
附近有阵雨
从 16日的 1100点(UTC)
风速9节,风向西转西南
能見度: 9.7公里
散云层高于1500英尺
多云层高于3000英尺
阵雨
从 16日的 1800点(UTC)
风速12节,风向西,有时为18节阵风
能見度: 10公里
散云层高于3500英尺
多云层高于5000英尺
附近有阵雨

TAF: KJAX 152337Z 1600/1624 09006KT P6SM -RA FEW015 BKN080 FM160200 13006KT P6SM VCSH SCT015 BKN040 FM161100 25009KT 6SM SHRA SCT015 BKN030 FM161800 27012G18KT P6SM VCSH SCT035 BKN050

超过4000个机场的气象观测和天气预报(METAR&TAF报告)。

可查询的气象台以黄色和红色小点在地图上表示。

将鼠标移到小点上方,可查看气象台名称。

然后点击查看天气观测和预报。

如需切换地图:点击带黑十字的绿色按钮放大地图;点击带横线的绿色按钮缩小地图;或者点击绿色箭头查看邻近地区的地图。


METAR-TAF: